createdAt,value
2018-09-05T00:01:55.711Z,13.23
2018-09-05T00:04:25.931Z,11.90
2018-09-05T00:06:56.408Z,13.97
2018-09-05T00:09:26.583Z,12.77
2018-09-05T00:11:57.347Z,13.43
2018-09-05T00:14:27.894Z,12.63
2018-09-05T00:16:58.005Z,14.80
2018-09-05T00:19:28.164Z,14.00
2018-09-05T00:21:58.553Z,12.83
2018-09-05T00:24:28.774Z,13.83
2018-09-05T00:26:59.284Z,11.77
2018-09-05T00:29:29.363Z,15.07
2018-09-05T00:31:59.645Z,15.97
2018-09-05T00:34:30.424Z,14.90
2018-09-05T00:37:00.712Z,14.57
2018-09-05T00:39:30.824Z,15.53
2018-09-05T00:42:01.162Z,13.40
2018-09-05T00:44:31.402Z,14.47
2018-09-05T00:47:01.484Z,13.73
2018-09-05T00:49:31.956Z,14.83
2018-09-05T00:52:02.672Z,14.50
2018-09-05T00:54:33.026Z,15.13
2018-09-05T00:57:03.847Z,15.30
2018-09-05T00:59:34.132Z,17.17
2018-09-05T01:02:04.291Z,16.53
2018-09-05T01:04:34.646Z,15.40
2018-09-05T01:07:23.444Z,16.23
2018-09-05T01:09:53.571Z,15.63
2018-09-05T01:12:24.445Z,15.77
2018-09-05T01:14:55.740Z,15.20
2018-09-05T01:17:26.015Z,15.87
2018-09-05T01:19:56.150Z,16.60
2018-09-05T01:22:26.906Z,16.43
2018-09-05T01:24:57.284Z,15.47
2018-09-05T01:27:27.569Z,17.53
2018-09-05T01:29:58.043Z,16.43
2018-09-05T01:32:28.041Z,16.90
2018-09-05T01:34:58.443Z,16.47
2018-09-05T01:37:28.531Z,15.93
2018-09-05T01:39:59.199Z,16.37
2018-09-05T01:42:29.256Z,15.73
2018-09-05T01:44:59.746Z,15.33
2018-09-05T01:47:30.099Z,15.73
2018-09-05T01:50:00.412Z,16.17
2018-09-05T01:52:30.484Z,15.90
2018-09-05T01:55:00.514Z,16.17
2018-09-05T01:57:30.792Z,16.97
2018-09-05T02:00:00.910Z,17.37
2018-09-05T02:02:30.970Z,17.77
2018-09-05T02:05:00.999Z,16.90
2018-09-05T02:07:31.109Z,16.23
2018-09-05T02:10:01.500Z,16.77
2018-09-05T02:12:31.649Z,16.67
2018-09-05T02:15:01.897Z,17.40
2018-09-05T02:17:32.503Z,15.50
2018-09-05T02:20:02.588Z,16.33
2018-09-05T02:22:33.208Z,17.80
2018-09-05T02:25:03.390Z,16.77
2018-09-05T02:27:33.460Z,15.77
2018-09-05T02:30:04.385Z,17.03
2018-09-05T02:32:34.768Z,16.20
2018-09-05T02:35:05.241Z,15.33
2018-09-05T02:37:35.500Z,16.60
2018-09-05T02:40:06.164Z,15.63
2018-09-05T02:42:36.432Z,16.33
2018-09-05T02:45:06.997Z,16.87
2018-09-05T02:47:37.152Z,16.80
2018-09-05T02:50:07.684Z,16.83
2018-09-05T02:52:37.957Z,17.57
2018-09-05T02:55:08.041Z,15.90
2018-09-05T02:57:38.387Z,17.77
2018-09-05T03:00:09.751Z,16.73
2018-09-05T03:02:40.190Z,17.10
2018-09-05T03:05:10.287Z,15.83
2018-09-05T03:07:40.431Z,15.53
2018-09-05T03:10:10.617Z,16.37
2018-09-05T03:12:40.774Z,14.97
2018-09-05T03:15:11.924Z,16.80
2018-09-05T03:17:42.078Z,14.80
2018-09-05T03:20:13.106Z,14.43
2018-09-05T03:22:43.255Z,13.80
2018-09-05T03:25:13.630Z,13.73
2018-09-05T03:27:44.321Z,14.23
2018-09-05T03:30:15.748Z,16.23
2018-09-05T03:32:46.133Z,14.67
2018-09-05T03:35:16.395Z,15.07
2018-09-05T03:37:46.639Z,15.33
2018-09-05T03:40:16.689Z,14.43
2018-09-05T03:42:47.026Z,14.90
2018-09-05T03:45:17.083Z,14.90
2018-09-05T03:47:47.663Z,13.87
2018-09-05T03:50:17.757Z,14.77
2018-09-05T03:52:47.952Z,14.70
2018-09-05T03:55:18.153Z,13.77
2018-09-05T03:57:48.343Z,15.03
2018-09-05T04:00:18.562Z,14.30
2018-09-05T04:02:48.839Z,13.63
2018-09-05T04:05:19.099Z,14.67
2018-09-05T04:07:49.227Z,14.57
2018-09-05T04:10:19.476Z,14.87
2018-09-05T04:12:49.676Z,15.57
2018-09-05T04:15:20.102Z,14.67
2018-09-05T04:17:50.319Z,14.87
2018-09-05T04:20:20.829Z,15.73
2018-09-05T04:22:51.061Z,16.33
2018-09-05T04:25:21.191Z,15.83
2018-09-05T04:27:51.863Z,14.93
2018-09-05T04:30:22.092Z,14.20
2018-09-05T04:32:52.471Z,14.80
2018-09-05T04:35:22.605Z,15.87
2018-09-05T04:37:52.827Z,15.47
2018-09-05T04:40:23.043Z,16.60
2018-09-05T04:42:53.056Z,17.17
2018-09-05T04:45:23.586Z,16.30
2018-09-05T04:47:53.648Z,14.13
2018-09-05T04:50:23.866Z,15.03
2018-09-05T04:52:54.733Z,14.73
2018-09-05T04:55:25.181Z,15.23
2018-09-05T04:57:55.328Z,14.90
2018-09-05T05:00:25.418Z,15.23
2018-09-05T05:02:55.524Z,15.80
2018-09-05T05:05:25.944Z,16.33
2018-09-05T05:07:56.667Z,15.67
2018-09-05T05:10:26.815Z,15.43
2018-09-05T05:12:56.994Z,16.27
2018-09-05T05:15:27.570Z,17.20
2018-09-05T05:17:57.842Z,18.30
2018-09-05T05:20:28.080Z,17.17
2018-09-05T05:22:58.393Z,17.53
2018-09-05T05:25:28.572Z,17.10
2018-09-05T05:27:58.730Z,19.67
2018-09-05T05:30:29.124Z,17.77
2018-09-05T05:32:59.445Z,18.03
2018-09-05T05:35:29.960Z,18.47
2018-09-05T05:38:00.164Z,17.83
2018-09-05T05:40:30.593Z,16.50
2018-09-05T05:43:00.784Z,16.77
2018-09-05T05:45:31.318Z,15.97
2018-09-05T05:48:02.239Z,16.90
2018-09-05T05:50:32.568Z,16.47
2018-09-05T05:53:02.959Z,16.43
2018-09-05T05:55:33.268Z,16.93
2018-09-05T05:58:03.649Z,17.17
2018-09-05T06:00:33.904Z,16.53
2018-09-05T06:03:04.052Z,18.47
2018-09-05T06:05:35.246Z,19.67
2018-09-05T06:08:05.757Z,18.60
2018-09-05T06:10:36.490Z,20.20
2018-09-05T06:13:07.139Z,19.85
2018-09-05T06:15:38.253Z,19.00
2018-09-05T06:18:09.997Z,18.07
2018-09-05T06:20:40.822Z,21.35
2018-09-05T06:23:11.598Z,21.77
2018-09-05T06:25:42.437Z,20.90
2018-09-05T06:28:13.545Z,22.05
2018-09-05T06:30:45.407Z,21.00
2018-09-05T06:33:16.207Z,22.07
2018-09-05T06:35:47.489Z,24.18
2018-09-05T06:38:18.390Z,23.62
2018-09-05T06:40:49.511Z,21.60
2018-09-05T06:43:20.400Z,22.05
2018-09-05T06:45:51.193Z,23.83
2018-09-05T06:48:21.983Z,23.40
2018-09-05T06:50:56.654Z,23.55
2018-09-05T06:53:27.503Z,22.00
2018-09-05T06:55:58.137Z,23.22
2018-09-05T06:58:28.905Z,22.73
2018-09-05T07:00:59.567Z,20.80
2018-09-05T07:03:30.425Z,21.27
2018-09-05T07:06:01.297Z,20.23
2018-09-05T07:08:32.507Z,19.50
2018-09-05T07:11:03.323Z,19.23
2018-09-05T07:13:34.183Z,19.02
2018-09-05T07:16:06.038Z,21.25
2018-09-05T07:18:36.999Z,19.80
2018-09-05T07:21:07.953Z,18.92
2018-09-05T07:23:38.998Z,19.75
2018-09-05T07:26:09.633Z,18.77
2018-09-05T07:28:40.246Z,19.10
2018-09-05T07:31:10.869Z,18.37
2018-09-05T07:33:41.808Z,17.48
2018-09-05T07:36:12.723Z,18.45
2018-09-05T07:38:43.613Z,17.75
2018-09-05T07:41:14.462Z,17.95
2018-09-05T07:43:45.397Z,18.17
2018-09-05T07:46:16.530Z,18.77
2018-09-05T07:48:47.741Z,18.60
2018-09-05T07:51:18.600Z,17.10
2018-09-05T07:53:49.269Z,18.90
2018-09-05T07:56:20.091Z,17.48
2018-09-05T07:58:50.910Z,17.70
2018-09-05T08:01:21.611Z,18.42
2018-09-05T08:03:52.669Z,17.23
2018-09-05T08:06:23.520Z,17.17
2018-09-05T08:08:54.796Z,16.15
2018-09-05T08:11:25.755Z,16.20
2018-09-05T08:13:56.523Z,15.43
2018-09-05T08:16:27.410Z,16.65
2018-09-05T08:18:58.456Z,16.02
2018-09-05T08:21:29.413Z,15.43
2018-09-05T08:24:00.140Z,15.40
2018-09-05T08:26:31.103Z,16.15
2018-09-05T08:29:03.656Z,16.70
2018-09-05T08:31:34.492Z,15.53
2018-09-05T08:34:05.650Z,15.28
2018-09-05T08:36:37.378Z,15.88
2018-09-05T08:39:12.635Z,14.33
2018-09-05T08:41:43.438Z,15.10
2018-09-05T08:44:14.803Z,14.73
2018-09-05T08:46:45.823Z,15.72
2018-09-05T08:49:16.735Z,15.30
2018-09-05T08:51:47.778Z,16.12
2018-09-05T08:54:18.437Z,14.50
2018-09-05T08:56:49.135Z,15.93
2018-09-05T08:59:19.753Z,14.85
2018-09-05T09:01:50.450Z,16.12
2018-09-05T09:04:21.065Z,15.45
2018-09-05T09:06:51.575Z,16.07
2018-09-05T09:09:22.669Z,16.17
2018-09-05T09:11:53.259Z,16.87
2018-09-05T09:14:24.110Z,16.00
2018-09-05T09:16:55.000Z,16.52
2018-09-05T09:19:25.896Z,16.95
2018-09-05T09:21:56.545Z,15.90
2018-09-05T09:24:27.172Z,15.53
2018-09-05T09:26:57.805Z,15.38
2018-09-05T09:29:28.599Z,14.40
2018-09-05T09:31:59.395Z,14.68
2018-09-05T09:34:30.211Z,15.83
2018-09-05T09:37:00.919Z,14.68
2018-09-05T09:39:31.654Z,14.95
2018-09-05T09:42:02.243Z,15.00
2018-09-05T09:44:32.826Z,15.65
2018-09-05T09:47:03.937Z,14.35
2018-09-05T09:49:34.910Z,13.83
2018-09-05T09:52:11.053Z,14.83
2018-09-05T09:54:41.847Z,13.93
2018-09-05T09:57:12.730Z,13.72
2018-09-05T09:59:43.313Z,14.05
2018-09-05T10:02:19.224Z,15.20
2018-09-05T10:04:55.254Z,14.07
2018-09-05T10:07:31.019Z,13.75
2018-09-05T10:10:07.031Z,14.38
2018-09-05T10:12:46.839Z,14.43
2018-09-05T10:15:22.702Z,14.23
2018-09-05T10:17:58.475Z,13.93
2018-09-05T10:20:29.129Z,15.98
2018-09-05T10:22:59.822Z,15.48
2018-09-05T10:25:30.631Z,15.10
2018-09-05T10:28:01.480Z,15.13
2018-09-05T10:30:32.099Z,15.20
2018-09-05T10:33:02.609Z,15.38
2018-09-05T10:35:33.772Z,14.90
2018-09-05T10:38:04.883Z,15.32
2018-09-05T10:40:36.135Z,15.60
2018-09-05T10:43:08.146Z,14.98
2018-09-05T10:45:39.382Z,14.03
2018-09-05T10:48:11.090Z,14.20
2018-09-05T10:50:43.681Z,14.60
2018-09-05T10:53:15.090Z,15.20
2018-09-05T10:55:45.866Z,14.53
2018-09-05T10:58:16.893Z,14.38
2018-09-05T11:00:47.964Z,14.07
2018-09-05T11:03:18.725Z,15.38
2018-09-05T11:05:49.492Z,13.35
2018-09-05T11:08:20.463Z,13.80
2018-09-05T11:10:51.420Z,14.15
2018-09-05T11:13:22.208Z,14.80
2018-09-05T11:15:52.984Z,14.70
2018-09-05T11:18:24.201Z,13.68
2018-09-05T11:20:55.472Z,14.53
2018-09-05T11:23:26.315Z,14.33
2018-09-05T11:25:57.241Z,14.30
2018-09-05T11:28:28.162Z,14.73
2018-09-05T11:30:58.884Z,14.20
2018-09-05T11:33:29.562Z,14.43
2018-09-05T11:36:00.498Z,13.62
2018-09-05T11:38:31.684Z,14.13
2018-09-05T11:41:02.632Z,13.65
2018-09-05T11:43:33.299Z,13.43
2018-09-05T11:46:04.064Z,14.07
2018-09-05T11:48:34.634Z,14.00
2018-09-05T11:51:06.097Z,13.00
2018-09-05T11:53:37.021Z,13.75
2018-09-05T11:56:07.955Z,14.53
2018-09-05T11:58:38.813Z,14.73
2018-09-05T12:01:09.622Z,15.13
2018-09-05T12:03:40.455Z,13.65
2018-09-05T12:06:11.199Z,14.28
2018-09-05T12:08:41.965Z,15.25
2018-09-05T12:11:13.126Z,16.42
2018-09-05T12:13:43.845Z,14.47
2018-09-05T12:16:14.695Z,14.25
2018-09-05T12:18:45.658Z,15.28
2018-09-05T12:21:16.660Z,15.35
2018-09-05T12:23:47.326Z,13.48
2018-09-05T12:26:18.072Z,14.30
2018-09-05T12:28:48.859Z,14.28
2018-09-05T12:31:19.893Z,14.05
2018-09-05T12:33:50.742Z,15.45
2018-09-05T12:36:21.628Z,14.47
2018-09-05T12:38:52.739Z,14.78
2018-09-05T12:41:23.689Z,14.10
2018-09-05T12:43:54.575Z,15.18
2018-09-05T12:46:25.246Z,14.78
2018-09-05T12:48:56.314Z,14.10
2018-09-05T12:51:28.823Z,13.50
2018-09-05T12:54:00.377Z,13.80
2018-09-05T12:56:31.370Z,13.88
2018-09-05T12:59:02.362Z,14.43
2018-09-05T13:01:33.177Z,14.00
2018-09-05T13:04:04.052Z,14.47
2018-09-05T13:06:34.920Z,13.13
2018-09-05T13:09:09.862Z,14.30
2018-09-05T13:11:40.701Z,13.50
2018-09-05T13:14:11.764Z,13.80
2018-09-05T13:16:43.098Z,12.82
2018-09-05T13:19:13.769Z,12.60
2018-09-05T13:21:44.877Z,12.93
2018-09-05T13:24:15.477Z,13.10
2018-09-05T13:26:46.640Z,12.98
2018-09-05T13:29:18.229Z,14.13
2018-09-05T13:31:48.758Z,17.20
2018-09-05T13:34:19.432Z,13.10
2018-09-05T13:36:50.011Z,12.60
2018-09-05T13:39:21.095Z,13.45
2018-09-05T13:41:51.934Z,12.55
2018-09-05T13:44:22.524Z,14.40
2018-09-05T13:46:53.156Z,13.75
2018-09-05T13:49:24.000Z,14.33
2018-09-05T13:52:00.346Z,13.83
2018-09-05T13:54:31.764Z,13.60
2018-09-05T13:57:02.558Z,12.78
2018-09-05T13:59:33.644Z,13.08
2018-09-05T14:02:04.645Z,12.98
2018-09-05T14:04:35.174Z,12.53
2018-09-05T14:07:06.200Z,13.08
2018-09-05T14:09:36.894Z,13.22
2018-09-05T14:12:07.945Z,13.83
2018-09-05T14:14:38.815Z,13.03
2018-09-05T14:17:09.434Z,12.80
2018-09-05T14:19:39.974Z,13.00
2018-09-05T14:22:10.532Z,12.70
2018-09-05T14:24:41.165Z,11.73
2018-09-05T14:27:11.949Z,12.28
2018-09-05T14:29:42.583Z,11.78
2018-09-05T14:32:13.285Z,12.93
2018-09-05T14:34:44.127Z,13.28
2018-09-05T14:37:15.012Z,12.58
2018-09-05T14:39:45.691Z,12.33
2018-09-05T14:42:16.695Z,12.85
2018-09-05T14:44:47.721Z,12.35
2018-09-05T14:47:18.644Z,12.10
2018-09-05T14:49:49.297Z,11.95
2018-09-05T14:52:19.834Z,12.23
2018-09-05T14:54:50.532Z,11.08
2018-09-05T14:57:21.349Z,10.82
2018-09-05T14:59:52.242Z,11.10
2018-09-05T15:02:23.112Z,11.40
2018-09-05T15:04:53.964Z,10.35
2018-09-05T15:07:25.472Z,10.70
2018-09-05T15:09:56.836Z,11.18
2018-09-05T15:12:27.881Z,10.85
2018-09-05T15:14:59.437Z,10.58
2018-09-05T15:17:30.486Z,10.68
2018-09-05T15:20:02.008Z,10.98
2018-09-05T15:22:32.896Z,11.48
2018-09-05T15:25:03.579Z,10.13
2018-09-05T15:27:34.205Z,11.05
2018-09-05T15:30:04.914Z,10.90
2018-09-05T15:32:35.738Z,11.28
2018-09-05T15:35:06.619Z,10.58
2018-09-05T15:37:37.265Z,10.55
2018-09-05T15:40:08.079Z,10.85
2018-09-05T15:42:38.949Z,10.93
2018-09-05T15:45:09.600Z,10.75
2018-09-05T15:47:40.178Z,10.60
2018-09-05T15:50:10.819Z,11.48
2018-09-05T15:52:41.519Z,11.65
2018-09-05T15:55:13.924Z,12.13
2018-09-05T15:57:45.184Z,11.35
2018-09-05T16:00:15.909Z,10.70
2018-09-05T16:02:46.534Z,9.48
2018-09-05T16:05:17.071Z,10.30
2018-09-05T16:07:47.763Z,10.18
2018-09-05T16:10:18.448Z,9.50
2018-09-05T16:12:49.577Z,9.78
2018-09-05T16:15:21.188Z,8.90
2018-09-05T16:17:52.352Z,8.80
2018-09-05T16:20:22.920Z,8.83
2018-09-05T16:22:53.524Z,9.03
2018-09-05T16:25:24.195Z,9.28
2018-09-05T16:27:54.741Z,9.68
2018-09-05T16:30:25.255Z,10.10
2018-09-05T16:32:55.962Z,9.98
2018-09-05T16:35:26.982Z,10.08
2018-09-05T16:37:57.826Z,10.68
2018-09-05T16:40:28.490Z,10.80
2018-09-05T16:42:59.480Z,10.60
2018-09-05T16:45:30.385Z,10.98
2018-09-05T16:48:01.040Z,10.98
2018-09-05T16:50:31.668Z,10.50
2018-09-05T16:53:02.204Z,11.22
2018-09-05T16:55:33.098Z,11.45
2018-09-05T16:58:03.774Z,10.90
2018-09-05T17:00:34.791Z,12.33
2018-09-05T17:03:06.148Z,10.95
2018-09-05T17:05:36.724Z,11.28
2018-09-05T17:08:07.563Z,10.85
2018-09-05T17:10:38.193Z,10.20
2018-09-05T17:13:09.246Z,10.13
2018-09-05T17:15:40.044Z,10.20
2018-09-05T17:18:10.712Z,10.80
2018-09-05T17:20:41.757Z,9.75
2018-09-05T17:23:12.727Z,11.08
2018-09-05T17:25:43.772Z,10.60
2018-09-05T17:28:15.104Z,10.63
2018-09-05T17:30:45.964Z,11.12
2018-09-05T17:33:17.154Z,10.85
2018-09-05T17:35:47.772Z,11.28
2018-09-05T17:38:18.487Z,9.95
2018-09-05T17:40:49.155Z,10.63
2018-09-05T17:43:19.819Z,11.18
2018-09-05T17:45:50.872Z,11.22
2018-09-05T17:48:21.854Z,10.78
2018-09-05T17:50:52.527Z,10.55
2018-09-05T17:53:23.458Z,11.08
2018-09-05T17:55:54.513Z,11.40
2018-09-05T17:58:25.385Z,10.55
2018-09-05T18:00:56.652Z,10.82
2018-09-05T18:03:27.404Z,11.15
2018-09-05T18:05:58.227Z,11.60
2018-09-05T18:08:29.113Z,12.58
2018-09-05T18:11:00.503Z,11.83
2018-09-05T18:13:31.465Z,10.80
2018-09-05T18:16:02.202Z,12.90
2018-09-05T18:18:33.254Z,15.05
2018-09-05T18:21:04.040Z,11.78
2018-09-05T18:23:34.772Z,11.68
2018-09-05T18:26:06.426Z,11.35
2018-09-05T18:28:37.125Z,11.80
2018-09-05T18:31:08.266Z,11.75
2018-09-05T18:33:39.361Z,11.00
2018-09-05T18:36:10.388Z,11.73
2018-09-05T18:38:41.132Z,11.78
2018-09-05T18:41:11.823Z,11.33
2018-09-05T18:43:42.875Z,11.97
2018-09-05T18:46:13.708Z,15.83
2018-09-05T18:48:44.722Z,11.60
2018-09-05T18:51:15.688Z,11.35
2018-09-05T18:53:46.542Z,11.45
2018-09-05T18:56:17.431Z,12.10
2018-09-05T18:58:48.239Z,11.03
2018-09-05T19:01:19.401Z,11.50
2018-09-05T19:03:50.345Z,11.45
2018-09-05T19:06:21.512Z,11.78
2018-09-05T19:08:52.292Z,11.63
2018-09-05T19:11:23.091Z,11.63
2018-09-05T19:13:54.154Z,12.15
2018-09-05T19:16:24.903Z,12.03
2018-09-05T19:18:55.917Z,11.83
2018-09-05T19:21:27.253Z,11.50
2018-09-05T19:23:58.482Z,13.03
2018-09-05T19:26:29.302Z,12.58
2018-09-05T19:29:00.170Z,12.35
2018-09-05T19:31:31.196Z,12.07
2018-09-05T19:34:01.974Z,12.65
2018-09-05T19:36:35.183Z,13.80
2018-09-05T19:39:09.988Z,13.20
2018-09-05T19:41:40.767Z,13.53
2018-09-05T19:44:12.256Z,12.43
2018-09-05T19:46:43.167Z,12.55
2018-09-05T19:49:13.998Z,13.25
2018-09-05T19:51:45.233Z,13.83
2018-09-05T19:54:16.114Z,13.30
2018-09-05T19:56:47.268Z,12.53
2018-09-05T19:59:18.325Z,14.65
2018-09-05T20:01:49.268Z,14.18
2018-09-05T20:04:20.201Z,14.38
2018-09-05T20:06:51.123Z,14.15
2018-09-05T20:09:22.479Z,13.43
2018-09-05T20:11:53.231Z,13.08
2018-09-05T20:14:24.147Z,14.07
2018-09-05T20:16:55.255Z,14.05
2018-09-05T20:19:26.302Z,14.35
2018-09-05T20:21:57.519Z,14.87
2018-09-05T20:24:28.287Z,14.90
2018-09-05T20:26:59.860Z,14.98
2018-09-05T20:29:30.672Z,14.50
2018-09-05T20:32:01.569Z,14.93
2018-09-05T20:34:32.503Z,14.98
2018-09-05T20:37:03.633Z,14.28
2018-09-05T20:39:34.566Z,14.33
2018-09-05T20:42:05.975Z,14.28
2018-09-05T20:44:36.822Z,14.20
2018-09-05T20:47:07.978Z,13.85
2018-09-05T20:49:38.708Z,13.32
2018-09-05T20:52:10.653Z,14.53
2018-09-05T20:54:42.320Z,14.40
2018-09-05T20:57:14.431Z,13.22
2018-09-05T20:59:45.843Z,13.45
2018-09-05T21:02:17.061Z,11.97
2018-09-05T21:04:48.347Z,13.05
2018-09-05T21:07:19.435Z,12.88
2018-09-05T21:09:50.373Z,12.53
2018-09-05T21:12:21.275Z,12.73
2018-09-05T21:14:52.473Z,11.85
2018-09-05T21:17:23.641Z,12.68
2018-09-05T21:19:54.969Z,12.65
2018-09-05T21:22:25.665Z,12.03
2018-09-05T21:24:56.755Z,11.78
2018-09-05T21:27:27.753Z,12.28
2018-09-05T21:29:58.610Z,11.75
2018-09-05T21:32:29.963Z,11.78
2018-09-05T21:35:00.853Z,11.40
2018-09-05T21:37:31.569Z,12.07
2018-09-05T21:40:02.194Z,12.33
2018-09-05T21:42:32.978Z,12.73
2018-09-05T21:45:03.889Z,12.18
2018-09-05T21:47:34.638Z,13.13
2018-09-05T21:50:05.840Z,11.73
2018-09-05T21:52:36.623Z,13.03
2018-09-05T21:55:07.783Z,12.15
2018-09-05T21:57:38.592Z,12.25
2018-09-05T22:00:10.558Z,11.95
2018-09-05T22:02:41.494Z,12.37
2018-09-05T22:05:12.330Z,13.85
2018-09-05T22:07:43.233Z,13.55
2018-09-05T22:10:14.601Z,12.43
2018-09-05T22:12:45.253Z,12.90
2018-09-05T22:15:16.168Z,12.58
2018-09-05T22:17:47.385Z,12.47
2018-09-05T22:20:18.945Z,12.82
2018-09-05T22:22:49.867Z,12.10
2018-09-05T22:25:20.601Z,12.00
2018-09-05T22:27:51.348Z,11.33
2018-09-05T22:30:22.735Z,12.05
2018-09-05T22:32:53.399Z,11.63
2018-09-05T22:35:24.031Z,12.13
2018-09-05T22:37:54.785Z,12.58
2018-09-05T22:40:25.874Z,12.60
2018-09-05T22:43:13.345Z,11.75
2018-09-05T22:46:01.004Z,11.85
2018-09-05T22:51:32.550Z,11.88
2018-09-05T22:56:34.045Z,12.10
2018-09-05T23:01:23.961Z,12.10
2018-09-05T23:04:41.785Z,12.18
2018-09-05T23:08:35.079Z,12.10
2018-09-05T23:13:25.329Z,12.78
2018-09-05T23:16:12.784Z,11.50
2018-09-05T23:19:07.191Z,12.60
2018-09-05T23:21:37.904Z,12.18
2018-09-05T23:24:10.843Z,12.33
2018-09-05T23:26:42.396Z,12.95
2018-09-05T23:29:13.139Z,13.03
2018-09-05T23:34:20.867Z,12.23
2018-09-05T23:37:06.186Z,11.48
2018-09-05T23:39:48.897Z,12.30
2018-09-05T23:42:19.956Z,12.65
2018-09-05T23:44:51.097Z,12.23
2018-09-05T23:47:21.770Z,12.85
2018-09-05T23:49:52.505Z,12.15
2018-09-05T23:52:23.198Z,13.45
2018-09-05T23:54:54.164Z,12.47
2018-09-05T23:57:24.843Z,13.08
2018-09-05T23:59:55.557Z,13.25
